sensor_id;sensor_type;location;lat;lon;timestamp;pressure;altitude;pressure_sealevel;temperature;humidity
15195;BME280;7698;42.478;23.756;2022-12-07T00:01:23;93358.19;;;6.38;100.00
15195;BME280;7698;42.478;23.756;2022-12-07T00:03:53;93365.41;;;6.24;100.00
15195;BME280;7698;42.478;23.756;2022-12-07T00:06:22;93367.44;;;6.29;100.00
15195;BME280;7698;42.478;23.756;2022-12-07T00:08:49;93365.34;;;6.37;100.00
15195;BME280;7698;42.478;23.756;2022-12-07T00:11:17;93362.34;;;6.27;100.00
15195;BME280;7698;42.478;23.756;2022-12-07T00:13:46;93361.06;;;6.36;100.00
15195;BME280;7698;42.478;23.756;2022-12-07T00:16:15;93355.53;;;6.38;100.00
15195;BME280;7698;42.478;23.756;2022-12-07T00:18:42;93358.78;;;6.40;100.00
15195;BME280;7698;42.478;23.756;2022-12-07T00:21:11;93357.41;;;6.31;100.00
15195;BME280;7698;42.478;23.756;2022-12-07T00:23:39;93356.88;;;6.22;100.00
15195;BME280;7698;42.478;23.756;2022-12-07T00:26:07;93350.25;;;6.31;100.00
15195;BME280;7698;42.478;23.756;2022-12-07T00:28:34;93352.31;;;6.29;100.00
15195;BME280;7698;42.478;23.756;2022-12-07T00:31:05;93355.25;;;6.15;100.00
15195;BME280;7698;42.478;23.756;2022-12-07T00:33:32;93358.31;;;6.11;100.00
15195;BME280;7698;42.478;23.756;2022-12-07T00:36:00;93363.84;;;6.10;100.00
15195;BME280;7698;42.478;23.756;2022-12-07T00:38:28;93364.84;;;6.09;100.00
15195;BME280;7698;42.478;23.756;2022-12-07T00:40:56;93363.19;;;6.21;100.00
15195;BME280;7698;42.478;23.756;2022-12-07T00:43:24;93365.03;;;6.21;100.00
15195;BME280;7698;42.478;23.756;2022-12-07T00:45:51;93367.47;;;6.22;100.00
15195;BME280;7698;42.478;23.756;2022-12-07T00:48:20;93356.03;;;6.22;100.00
15195;BME280;7698;42.478;23.756;2022-12-07T00:50:48;93360.13;;;6.24;100.00
15195;BME280;7698;42.478;23.756;2022-12-07T00:53:15;93352.81;;;6.13;100.00
15195;BME280;7698;42.478;23.756;2022-12-07T00:55:43;93355.22;;;6.21;100.00
15195;BME280;7698;42.478;23.756;2022-12-07T00:58:10;93351.97;;;6.19;100.00
15195;BME280;7698;42.478;23.756;2022-12-07T01:00:39;93356.31;;;6.07;100.00
15195;BME280;7698;42.478;23.756;2022-12-07T01:03:08;93349.97;;;6.08;100.00
15195;BME280;7698;42.478;23.756;2022-12-07T01:05:36;93342.66;;;6.03;100.00
15195;BME280;7698;42.478;23.756;2022-12-07T01:08:04;93341.63;;;6.04;100.00
15195;BME280;7698;42.478;23.756;2022-12-07T01:10:31;93348.56;;;6.05;100.00
15195;BME280;7698;42.478;23.756;2022-12-07T01:12:58;93341.41;;;6.06;100.00
15195;BME280;7698;42.478;23.756;2022-12-07T01:15:25;93336.13;;;6.06;100.00
15195;BME280;7698;42.478;23.756;2022-12-07T01:17:53;93337.34;;;6.10;100.00
15195;BME280;7698;42.478;23.756;2022-12-07T01:20:20;93337.94;;;6.12;100.00
15195;BME280;7698;42.478;23.756;2022-12-07T01:22:48;93337.94;;;6.12;100.00
15195;BME280;7698;42.478;23.756;2022-12-07T01:25:15;93333.25;;;6.14;100.00
15195;BME280;7698;42.478;23.756;2022-12-07T01:27:42;93327.13;;;6.14;100.00
15195;BME280;7698;42.478;23.756;2022-12-07T01:30:10;93323.44;;;6.15;100.00
15195;BME280;7698;42.478;23.756;2022-12-07T01:32:37;93318.97;;;6.15;100.00
15195;BME280;7698;42.478;23.756;2022-12-07T01:35:05;93319.78;;;6.16;100.00
15195;BME280;7698;42.478;23.756;2022-12-07T01:37:34;93318.53;;;6.18;100.00
15195;BME280;7698;42.478;23.756;2022-12-07T01:40:04;93317.09;;;6.22;100.00
15195;BME280;7698;42.478;23.756;2022-12-07T01:42:31;93321.97;;;6.25;100.00
15195;BME280;7698;42.478;23.756;2022-12-07T01:45:36;93317.69;;;6.24;100.00
15195;BME280;7698;42.478;23.756;2022-12-07T01:48:03;93323.38;;;6.28;100.00
15195;BME280;7698;42.478;23.756;2022-12-07T01:50:31;93320.50;;;6.29;100.00
15195;BME280;7698;42.478;23.756;2022-12-07T01:52:59;93319.72;;;6.29;100.00
15195;BME280;7698;42.478;23.756;2022-12-07T01:55:30;93312.53;;;6.29;100.00
15195;BME280;7698;42.478;23.756;2022-12-07T01:57:57;93314.16;;;6.30;100.00
15195;BME280;7698;42.478;23.756;2022-12-07T02:00:24;93315.19;;;6.29;100.00
15195;BME280;7698;42.478;23.756;2022-12-07T02:02:54;93320.88;;;6.33;100.00
15195;BME280;7698;42.478;23.756;2022-12-07T02:05:23;93320.47;;;6.36;100.00
15195;BME280;7698;42.478;23.756;2022-12-07T02:07:53;93312.50;;;6.36;100.00
15195;BME280;7698;42.478;23.756;2022-12-07T02:10:22;93313.13;;;6.38;100.00
15195;BME280;7698;42.478;23.756;2022-12-07T02:12:53;93308.63;;;6.38;100.00
15195;BME280;7698;42.478;23.756;2022-12-07T02:15:23;93303.31;;;6.38;100.00
15195;BME280;7698;42.478;23.756;2022-12-07T02:17:58;93306.56;;;6.40;100.00
15195;BME280;7698;42.478;23.756;2022-12-07T02:20:30;93300.25;;;6.41;100.00
15195;BME280;7698;42.478;23.756;2022-12-07T02:26:37;93305.13;;;6.44;100.00
15195;BME280;7698;42.478;23.756;2022-12-07T02:29:20;93305.72;;;6.47;100.00
15195;BME280;7698;42.478;23.756;2022-12-07T02:31:58;93310.41;;;6.44;100.00
15195;BME280;7698;42.478;23.756;2022-12-07T02:34:36;93318.78;;;6.48;100.00
15195;BME280;7698;42.478;23.756;2022-12-07T02:37:11;93306.53;;;6.47;100.00
15195;BME280;7698;42.478;23.756;2022-12-07T02:39:44;93301.25;;;6.40;100.00
15195;BME280;7698;42.478;23.756;2022-12-07T02:42:17;93294.56;;;6.38;100.00
15195;BME280;7698;42.478;23.756;2022-12-07T02:44:47;93295.16;;;6.40;100.00
15195;BME280;7698;42.478;23.756;2022-12-07T02:47:16;93296.78;;;6.41;100.00
15195;BME280;7698;42.478;23.756;2022-12-07T02:49:44;93294.34;;;6.39;100.00
15195;BME280;7698;42.478;23.756;2022-12-07T02:52:11;93291.25;;;6.42;100.00
15195;BME280;7698;42.478;23.756;2022-12-07T02:54:38;93293.91;;;6.42;100.00
15195;BME280;7698;42.478;23.756;2022-12-07T02:57:15;93293.09;;;6.42;100.00
15195;BME280;7698;42.478;23.756;2022-12-07T02:59:58;93279.28;;;6.33;100.00
15195;BME280;7698;42.478;23.756;2022-12-07T03:02:35;93289.03;;;6.39;100.00
15195;BME280;7698;42.478;23.756;2022-12-07T03:05:32;93293.91;;;6.42;100.00
15195;BME280;7698;42.478;23.756;2022-12-07T03:08:12;93294.94;;;6.41;100.00
15195;BME280;7698;42.478;23.756;2022-12-07T03:10:46;93287.41;;;6.38;100.00
15195;BME280;7698;42.478;23.756;2022-12-07T03:13:19;93293.72;;;6.37;100.00
15195;BME280;7698;42.478;23.756;2022-12-07T03:15:53;93290.88;;;6.39;100.00
15195;BME280;7698;42.478;23.756;2022-12-07T03:18:24;93289.84;;;6.40;100.00
15195;BME280;7698;42.478;23.756;2022-12-07T03:20:56;93281.25;;;6.44;100.00
15195;BME280;7698;42.478;23.756;2022-12-07T03:23:25;93280.00;;;6.47;100.00
15195;BME280;7698;42.478;23.756;2022-12-07T03:25:56;93281.63;;;6.48;100.00
15195;BME280;7698;42.478;23.756;2022-12-07T03:28:27;93285.31;;;6.47;100.00
15195;BME280;7698;42.478;23.756;2022-12-07T03:31:00;93277.56;;;6.45;100.00
15195;BME280;7698;42.478;23.756;2022-12-07T03:33:30;93278.59;;;6.44;100.00
15195;BME280;7698;42.478;23.756;2022-12-07T03:36:01;93278.38;;;6.46;100.00
15195;BME280;7698;42.478;23.756;2022-12-07T03:38:33;93275.13;;;6.44;100.00
15195;BME280;7698;42.478;23.756;2022-12-07T03:41:06;93276.38;;;6.41;100.00
15195;BME280;7698;42.478;23.756;2022-12-07T03:43:35;93275.78;;;6.39;100.00
15195;BME280;7698;42.478;23.756;2022-12-07T03:46:08;93270.47;;;6.39;100.00
15195;BME280;7698;42.478;23.756;2022-12-07T03:48:41;93276.78;;;6.38;100.00
15195;BME280;7698;42.478;23.756;2022-12-07T03:51:13;93286.59;;;6.38;100.00
15195;BME280;7698;42.478;23.756;2022-12-07T03:53:49;93270.91;;;6.36;100.00
15195;BME280;7698;42.478;23.756;2022-12-07T03:56:18;93269.47;;;6.34;100.00
15195;BME280;7698;42.478;23.756;2022-12-07T03:58:46;93270.28;;;6.34;100.00
15195;BME280;7698;42.478;23.756;2022-12-07T04:01:14;93270.50;;;6.33;100.00
15195;BME280;7698;42.478;23.756;2022-12-07T04:03:41;93268.66;;;6.33;100.00
15195;BME280;7698;42.478;23.756;2022-12-07T04:06:08;93275.00;;;6.32;100.00
15195;BME280;7698;42.478;23.756;2022-12-07T04:08:35;93265.41;;;6.31;100.00
15195;BME280;7698;42.478;23.756;2022-12-07T04:11:01;93262.34;;;6.34;100.00
15195;BME280;7698;42.478;23.756;2022-12-07T04:13:28;93270.28;;;6.34;100.00
15195;BME280;7698;42.478;23.756;2022-12-07T04:16:16;93267.25;;;6.31;100.00
15195;BME280;7698;42.478;23.756;2022-12-07T04:18:43;93268.06;;;6.31;100.00
15195;BME280;7698;42.478;23.756;2022-12-07T04:21:10;93267.84;;;6.33;100.00
15195;BME280;7698;42.478;23.756;2022-12-07T04:23:37;93263.97;;;6.35;100.00
15195;BME280;7698;42.478;23.756;2022-12-07T04:26:04;93264.56;;;6.37;100.00
15195;BME280;7698;42.478;23.756;2022-12-07T04:28:31;93265.59;;;6.36;100.00
15195;BME280;7698;42.478;23.756;2022-12-07T04:30:57;93266.63;;;6.35;100.00
15195;BME280;7698;42.478;23.756;2022-12-07T04:33:26;93274.78;;;6.34;100.00
15195;BME280;7698;42.478;23.756;2022-12-07T04:35:52;93268.47;;;6.35;100.00
15195;BME280;7698;42.478;23.756;2022-12-07T04:38:19;93275.16;;;6.37;100.00
15195;BME280;7698;42.478;23.756;2022-12-07T04:40:46;93270.28;;;6.34;100.00
15195;BME280;7698;42.478;23.756;2022-12-07T04:43:13;93269.47;;;6.34;100.00
15195;BME280;7698;42.478;23.756;2022-12-07T04:45:40;93270.50;;;6.33;100.00
15195;BME280;7698;42.478;23.756;2022-12-07T04:48:11;93267.03;;;6.32;100.00
15195;BME280;7698;42.478;23.756;2022-12-07T04:50:39;93275.66;;;6.28;100.00
15195;BME280;7698;42.478;23.756;2022-12-07T04:53:06;93278.31;;;6.28;100.00
15195;BME280;7698;42.478;23.756;2022-12-07T04:55:33;93276.91;;;6.25;100.00
15195;BME280;7698;42.478;23.756;2022-12-07T04:57:59;93282.63;;;6.22;100.00
15195;BME280;7698;42.478;23.756;2022-12-07T05:00:26;93281.00;;;6.21;100.00
15195;BME280;7698;42.478;23.756;2022-12-07T05:02:53;93282.25;;;6.19;100.00
15195;BME280;7698;42.478;23.756;2022-12-07T05:05:20;93272.88;;;6.16;100.00
15195;BME280;7698;42.478;23.756;2022-12-07T05:07:48;93280.81;;;6.16;100.00
15195;BME280;7698;42.478;23.756;2022-12-07T05:10:15;93273.69;;;6.17;100.00
15195;BME280;7698;42.478;23.756;2022-12-07T05:12:42;93271.84;;;6.17;100.00
15195;BME280;7698;42.478;23.756;2022-12-07T05:15:09;93265.13;;;6.15;100.00
15195;BME280;7698;42.478;23.756;2022-12-07T05:17:36;93261.28;;;6.10;100.00
15195;BME280;7698;42.478;23.756;2022-12-07T05:20:04;93259.22;;;6.13;100.00
15195;BME280;7698;42.478;23.756;2022-12-07T05:22:32;93271.66;;;6.12;100.00
15195;BME280;7698;42.478;23.756;2022-12-07T05:25:00;93271.66;;;6.12;100.00
15195;BME280;7698;42.478;23.756;2022-12-07T05:27:26;93268.81;;;6.14;100.00
15195;BME280;7698;42.478;23.756;2022-12-07T05:29:53;93270.84;;;6.11;100.00
15195;BME280;7698;42.478;23.756;2022-12-07T05:32:20;93264.75;;;6.11;100.00
15195;BME280;7698;42.478;23.756;2022-12-07T05:34:47;93262.94;;;6.05;100.00
15195;BME280;7698;42.478;23.756;2022-12-07T05:37:14;93268.63;;;6.08;100.00
15195;BME280;7698;42.478;23.756;2022-12-07T05:39:40;93272.09;;;6.09;100.00
15195;BME280;7698;42.478;23.756;2022-12-07T05:42:10;93266.19;;;6.07;100.00
15195;BME280;7698;42.478;23.756;2022-12-07T05:44:38;93270.88;;;6.05;100.00
15195;BME280;7698;42.478;23.756;2022-12-07T05:47:05;93270.88;;;6.05;100.00
15195;BME280;7698;42.478;23.756;2022-12-07T05:49:32;93273.97;;;6.02;100.00
15195;BME280;7698;42.478;23.756;2022-12-07T05:51:59;93277.06;;;5.99;100.00
15195;BME280;7698;42.478;23.756;2022-12-07T05:54:26;93270.94;;;5.98;100.00
15195;BME280;7698;42.478;23.756;2022-12-07T05:56:53;93267.06;;;6.01;100.00
15195;BME280;7698;42.478;23.756;2022-12-07T05:59:21;93269.88;;;6.06;100.00
15195;BME280;7698;42.478;23.756;2022-12-07T06:01:52;93257.09;;;5.96;100.00
15195;BME280;7698;42.478;23.756;2022-12-07T06:04:19;93260.97;;;5.94;100.00
15195;BME280;7698;42.478;23.756;2022-12-07T06:06:47;93262.81;;;5.93;100.00
15195;BME280;7698;42.478;23.756;2022-12-07T06:09:14;93262.00;;;5.93;100.00
15195;BME280;7698;42.478;23.756;2022-12-07T06:11:41;93265.25;;;5.95;100.00
15195;BME280;7698;42.478;23.756;2022-12-07T06:14:27;93265.66;;;5.98;100.00
15195;BME280;7698;42.478;23.756;2022-12-07T06:16:53;93270.13;;;5.98;100.00
15195;BME280;7698;42.478;23.756;2022-12-07T06:19:20;93262.19;;;5.98;100.00
15195;BME280;7698;42.478;23.756;2022-12-07T06:21:47;93265.66;;;5.98;100.00
15195;BME280;7698;42.478;23.756;2022-12-07T06:24:15;93267.69;;;5.96;100.00
15195;BME280;7698;42.478;23.756;2022-12-07T06:26:42;93273.75;;;6.03;100.00
15195;BME280;7698;42.478;23.756;2022-12-07T06:29:10;93274.13;;;6.07;100.00
15195;BME280;7698;42.478;23.756;2022-12-07T06:31:38;93271.28;;;6.08;100.00
15195;BME280;7698;42.478;23.756;2022-12-07T06:34:06;93275.66;;;5.96;100.00
15195;BME280;7698;42.478;23.756;2022-12-07T06:36:35;93274.19;;;6.00;100.00
15195;BME280;7698;42.478;23.756;2022-12-07T06:39:02;93274.13;;;6.07;100.00
15195;BME280;7698;42.478;23.756;2022-12-07T06:41:29;93281.88;;;6.08;100.00
15195;BME280;7698;42.478;23.756;2022-12-07T06:43:56;93279.44;;;6.07;100.00
15195;BME280;7698;42.478;23.756;2022-12-07T06:46:23;93282.66;;;6.16;100.00
15195;BME280;7698;42.478;23.756;2022-12-07T06:48:52;93278.59;;;6.13;100.00
15195;BME280;7698;42.478;23.756;2022-12-07T06:51:19;93278.16;;;6.16;100.00
15195;BME280;7698;42.478;23.756;2022-12-07T06:53:45;93282.47;;;6.10;100.00
15195;BME280;7698;42.478;23.756;2022-12-07T06:56:12;93296.72;;;6.16;100.00
15195;BME280;7698;42.478;23.756;2022-12-07T06:58:39;93284.84;;;6.25;100.00
15195;BME280;7698;42.478;23.756;2022-12-07T07:01:09;93289.50;;;6.30;100.00
15195;BME280;7698;42.478;23.756;2022-12-07T07:03:36;93285.00;;;6.30;100.00
15195;BME280;7698;42.478;23.756;2022-12-07T07:06:06;93289.94;;;6.27;100.00
15195;BME280;7698;42.478;23.756;2022-12-07T07:08:33;93290.31;;;6.30;100.00
15195;BME280;7698;42.478;23.756;2022-12-07T07:11:00;93290.31;;;6.30;100.00
15195;BME280;7698;42.478;23.756;2022-12-07T07:13:27;93285.78;;;6.37;100.00
15195;BME280;7698;42.478;23.756;2022-12-07T07:15:54;93293.53;;;6.39;100.00
15195;BME280;7698;42.478;23.756;2022-12-07T07:18:21;93282.91;;;6.39;100.00
15195;BME280;7698;42.478;23.756;2022-12-07T07:20:50;93288.44;;;6.37;100.00
15195;BME280;7698;42.478;23.756;2022-12-07T07:23:18;93286.56;;;6.44;100.00
15195;BME280;7698;42.478;23.756;2022-12-07T07:25:46;93281.63;;;6.48;100.00
15195;BME280;7698;42.478;23.756;2022-12-07T07:28:13;93279.09;;;6.60;100.00
15195;BME280;7698;42.478;23.756;2022-12-07T07:30:40;93281.91;;;6.65;100.00
15195;BME280;7698;42.478;23.756;2022-12-07T07:33:07;93281.59;;;6.79;100.00
15195;BME280;7698;42.478;23.756;2022-12-07T07:35:34;93287.75;;;6.98;100.00
15195;BME280;7698;42.478;23.756;2022-12-07T07:38:01;93288.09;;;7.27;100.00
15195;BME280;7698;42.478;23.756;2022-12-07T07:40:29;93289.66;;;7.53;100.00
15195;BME280;7698;42.478;23.756;2022-12-07T07:42:57;93287.22;;;7.88;100.00
15195;BME280;7698;42.478;23.756;2022-12-07T07:45:25;93294.19;;;8.19;100.00
15195;BME280;7698;42.478;23.756;2022-12-07T07:47:52;93291.34;;;8.32;100.00
15195;BME280;7698;42.478;23.756;2022-12-07T07:50:19;93288.75;;;8.43;100.00
15195;BME280;7698;42.478;23.756;2022-12-07T07:52:47;93290.16;;;8.46;100.00
15195;BME280;7698;42.478;23.756;2022-12-07T07:55:14;93283.34;;;8.32;100.00
15195;BME280;7698;42.478;23.756;2022-12-07T07:57:42;93279.75;;;8.26;100.00
15195;BME280;7698;42.478;23.756;2022-12-07T08:00:11;93286.00;;;8.32;100.00
15195;BME280;7698;42.478;23.756;2022-12-07T08:02:38;93284.03;;;8.45;100.00
15195;BME280;7698;42.478;23.756;2022-12-07T08:05:07;93283.53;;;8.48;100.00
15195;BME280;7698;42.478;23.756;2022-12-07T08:07:34;93283.09;;;8.52;100.00
15195;BME280;7698;42.478;23.756;2022-12-07T08:10:01;93281.16;;;8.59;100.00
15195;BME280;7698;42.478;23.756;2022-12-07T08:12:28;93289.34;;;8.45;100.00
15195;BME280;7698;42.478;23.756;2022-12-07T08:14:56;93286.53;;;8.40;100.00
15195;BME280;7698;42.478;23.756;2022-12-07T08:17:23;93287.38;;;8.41;100.00
15195;BME280;7698;42.478;23.756;2022-12-07T08:19:50;93281.81;;;8.42;100.00
15195;BME280;7698;42.478;23.756;2022-12-07T08:22:16;93283.31;;;8.50;100.00
15195;BME280;7698;42.478;23.756;2022-12-07T08:24:44;93275.09;;;8.52;100.00
15195;BME280;7698;42.478;23.756;2022-12-07T08:27:11;93274.78;;;8.60;100.00
15195;BME280;7698;42.478;23.756;2022-12-07T08:29:38;93274.94;;;8.76;100.00
15195;BME280;7698;42.478;23.756;2022-12-07T08:32:06;93277.16;;;8.91;100.00
15195;BME280;7698;42.478;23.756;2022-12-07T08:34:33;93276.72;;;9.18;100.00
15195;BME280;7698;42.478;23.756;2022-12-07T08:37:00;93266.06;;;9.29;100.00
15195;BME280;7698;42.478;23.756;2022-12-07T08:39:27;93274.97;;;9.35;100.00
15195;BME280;7698;42.478;23.756;2022-12-07T08:41:53;93280.53;;;9.45;100.00
15195;BME280;7698;42.478;23.756;2022-12-07T08:44:21;93281.44;;;9.62;100.00
15195;BME280;7698;42.478;23.756;2022-12-07T08:46:50;93273.16;;;9.87;100.00
15195;BME280;7698;42.478;23.756;2022-12-07T08:49:22;93278.84;;;10.31;100.00
15195;BME280;7698;42.478;23.756;2022-12-07T08:51:51;93269.69;;;10.55;100.00
15195;BME280;7698;42.478;23.756;2022-12-07T08:54:18;93268.19;;;10.76;100.00
15195;BME280;7698;42.478;23.756;2022-12-07T08:56:47;93269.31;;;10.97;100.00
15195;BME280;7698;42.478;23.756;2022-12-07T08:59:17;93271.25;;;11.35;100.00
15195;BME280;7698;42.478;23.756;2022-12-07T09:01:44;93275.63;;;11.41;97.97
15195;BME280;7698;42.478;23.756;2022-12-07T09:04:11;93277.09;;;11.48;98.15
15195;BME280;7698;42.478;23.756;2022-12-07T09:06:40;93271.22;;;11.51;92.64
15195;BME280;7698;42.478;23.756;2022-12-07T09:09:08;93263.97;;;11.47;88.47
15195;BME280;7698;42.478;23.756;2022-12-07T09:11:35;93259.53;;;11.58;88.20
15195;BME280;7698;42.478;23.756;2022-12-07T09:14:02;93249.19;;;12.05;90.43
15195;BME280;7698;42.478;23.756;2022-12-07T09:16:29;93253.09;;;12.68;88.24
15195;BME280;7698;42.478;23.756;2022-12-07T09:18:56;93250.34;;;12.89;80.08
15195;BME280;7698;42.478;23.756;2022-12-07T09:21:23;93249.91;;;12.71;75.07
15195;BME280;7698;42.478;23.756;2022-12-07T09:23:51;93238.25;;;12.82;74.71
15195;BME280;7698;42.478;23.756;2022-12-07T09:26:18;93240.47;;;12.95;75.04
15195;BME280;7698;42.478;23.756;2022-12-07T09:28:45;93245.78;;;13.54;76.73
15195;BME280;7698;42.478;23.756;2022-12-07T09:31:11;93240.44;;;14.11;75.87
15195;BME280;7698;42.478;23.756;2022-12-07T09:33:38;93239.84;;;15.12;73.28
15195;BME280;7698;42.478;23.756;2022-12-07T09:36:07;93248.22;;;15.56;63.66
15195;BME280;7698;42.478;23.756;2022-12-07T09:38:35;93247.13;;;15.42;60.31
15195;BME280;7698;42.478;23.756;2022-12-07T09:41:06;93241.47;;;15.49;61.56
15195;BME280;7698;42.478;23.756;2022-12-07T09:43:34;93250.59;;;15.83;60.39
15195;BME280;7698;42.478;23.756;2022-12-07T09:46:02;93241.81;;;16.32;59.39
15195;BME280;7698;42.478;23.756;2022-12-07T09:48:31;93240.66;;;16.48;57.03
15195;BME280;7698;42.478;23.756;2022-12-07T09:51:00;93248.84;;;16.23;56.00
15195;BME280;7698;42.478;23.756;2022-12-07T09:53:30;93240.13;;;16.46;57.55
15195;BME280;7698;42.478;23.756;2022-12-07T09:56:00;93241.47;;;16.44;53.94
15195;BME280;7698;42.478;23.756;2022-12-07T09:58:30;93234.84;;;16.21;56.34
15195;BME280;7698;42.478;23.756;2022-12-07T10:01:00;93235.63;;;16.32;55.62
15195;BME280;7698;42.478;23.756;2022-12-07T10:03:28;93236.66;;;16.41;54.06
15195;BME280;7698;42.478;23.756;2022-12-07T10:05:55;93234.91;;;16.11;54.54
15195;BME280;7698;42.478;23.756;2022-12-07T10:08:25;93221.34;;;16.31;56.95
15195;BME280;7698;42.478;23.756;2022-12-07T10:10:54;93214.47;;;16.54;54.41
15195;BME280;7698;42.478;23.756;2022-12-07T10:13:35;93217.59;;;16.22;53.24
15195;BME280;7698;42.478;23.756;2022-12-07T10:16:03;93215.00;;;16.02;53.72
15195;BME280;7698;42.478;23.756;2022-12-07T10:18:32;93211.03;;;15.79;54.79
15195;BME280;7698;42.478;23.756;2022-12-07T10:21:09;93200.34;;;15.23;56.68
15195;BME280;7698;42.478;23.756;2022-12-07T10:23:38;93202.88;;;14.27;57.58
15195;BME280;7698;42.478;23.756;2022-12-07T10:26:26;93191.00;;;14.02;62.04
15195;BME280;7698;42.478;23.756;2022-12-07T10:28:56;93187.72;;;13.85;64.00
15195;BME280;7698;42.478;23.756;2022-12-07T10:31:25;93190.22;;;14.07;64.77
15195;BME280;7698;42.478;23.756;2022-12-07T10:33:53;93190.25;;;14.27;66.41
15195;BME280;7698;42.478;23.756;2022-12-07T10:36:24;93195.13;;;14.40;63.57
15195;BME280;7698;42.478;23.756;2022-12-07T10:38:52;93188.19;;;14.44;63.29
15195;BME280;7698;42.478;23.756;2022-12-07T10:41:19;93183.91;;;14.53;63.82
15195;BME280;7698;42.478;23.756;2022-12-07T10:43:49;93179.47;;;14.07;62.92
15195;BME280;7698;42.478;23.756;2022-12-07T10:46:40;93162.44;;;13.76;66.08
15195;BME280;7698;42.478;23.756;2022-12-07T10:49:23;93170.72;;;13.69;67.04
15195;BME280;7698;42.478;23.756;2022-12-07T10:51:56;93171.84;;;13.78;70.09
15195;BME280;7698;42.478;23.756;2022-12-07T10:54:37;93163.78;;;13.78;68.43
15195;BME280;7698;42.478;23.756;2022-12-07T10:57:34;93168.50;;;13.51;66.98
15195;BME280;7698;42.478;23.756;2022-12-07T11:00:13;93156.56;;;13.27;68.33
15195;BME280;7698;42.478;23.756;2022-12-07T11:03:01;93152.78;;;13.23;69.86
15195;BME280;7698;42.478;23.756;2022-12-07T11:05:39;93146.94;;;13.31;70.99
15195;BME280;7698;42.478;23.756;2022-12-07T11:08:14;93153.31;;;13.19;69.04
15195;BME280;7698;42.478;23.756;2022-12-07T11:10:51;93146.63;;;12.85;70.49
15195;BME280;7698;42.478;23.756;2022-12-07T11:13:26;93139.47;;;12.64;71.71
15195;BME280;7698;42.478;23.756;2022-12-07T11:16:04;93134.63;;;12.56;73.79
15195;BME280;7698;42.478;23.756;2022-12-07T11:18:43;93137.34;;;12.66;75.49
15195;BME280;7698;42.478;23.756;2022-12-07T11:21:19;93141.31;;;12.95;75.38
15195;BME280;7698;42.478;23.756;2022-12-07T11:23:53;93139.44;;;13.33;74.15
15195;BME280;7698;42.478;23.756;2022-12-07T11:26:37;93140.94;;;13.66;72.38
15195;BME280;7698;42.478;23.756;2022-12-07T11:29:17;93132.94;;;13.81;69.61
15195;BME280;7698;42.478;23.756;2022-12-07T11:31:57;93129.25;;;14.07;68.96
15195;BME280;7698;42.478;23.756;2022-12-07T11:34:37;93129.09;;;14.65;65.94
15195;BME280;7698;42.478;23.756;2022-12-07T11:37:12;93119.91;;;15.11;63.60
15195;BME280;7698;42.478;23.756;2022-12-07T11:39:45;93120.66;;;15.42;61.37
15195;BME280;7698;42.478;23.756;2022-12-07T11:42:15;93114.94;;;15.69;59.19
15195;BME280;7698;42.478;23.756;2022-12-07T11:44:49;93111.59;;;15.98;58.89
15195;BME280;7698;42.478;23.756;2022-12-07T11:47:21;93109.06;;;16.16;57.00
15195;BME280;7698;42.478;23.756;2022-12-07T11:49:53;93110.00;;;16.41;56.16
15195;BME280;7698;42.478;23.756;2022-12-07T11:52:26;93107.09;;;16.32;55.77
15195;BME280;7698;42.478;23.756;2022-12-07T11:54:54;93103.09;;;16.24;54.36
15195;BME280;7698;42.478;23.756;2022-12-07T11:57:26;93100.59;;;16.38;54.83
15195;BME280;7698;42.478;23.756;2022-12-07T12:00:00;93100.34;;;16.35;55.69
15195;BME280;7698;42.478;23.756;2022-12-07T12:02:32;93104.00;;;16.49;54.77
15195;BME280;7698;42.478;23.756;2022-12-07T12:05:12;93095.28;;;16.62;55.30
15195;BME280;7698;42.478;23.756;2022-12-07T12:07:41;93091.06;;;16.46;53.62
15195;BME280;7698;42.478;23.756;2022-12-07T12:10:18;93083.09;;;16.36;54.93
15195;BME280;7698;42.478;23.756;2022-12-07T12:12:59;93089.22;;;16.41;55.20
15195;BME280;7698;42.478;23.756;2022-12-07T12:15:41;93090.00;;;16.47;53.46
15195;BME280;7698;42.478;23.756;2022-12-07T12:18:23;93081.19;;;16.36;55.15
15195;BME280;7698;42.478;23.756;2022-12-07T12:21:01;93080.25;;;16.51;55.52
15195;BME280;7698;42.478;23.756;2022-12-07T12:23:36;93074.84;;;16.56;54.76
15195;BME280;7698;42.478;23.756;2022-12-07T12:26:06;93083.16;;;16.20;54.00
15195;BME280;7698;42.478;23.756;2022-12-07T12:28:39;93082.72;;;15.59;54.86
15195;BME280;7698;42.478;23.756;2022-12-07T12:31:10;93082.31;;;15.01;56.05
15195;BME280;7698;42.478;23.756;2022-12-07T12:33:43;93080.16;;;14.98;58.27
15195;BME280;7698;42.478;23.756;2022-12-07T12:36:43;93072.28;;;15.27;57.33
15195;BME280;7698;42.478;23.756;2022-12-07T12:39:12;93077.19;;;15.00;56.83
15195;BME280;7698;42.478;23.756;2022-12-07T12:41:59;93078.56;;;14.82;58.49
15195;BME280;7698;42.478;23.756;2022-12-07T12:47:43;93059.75;;;14.31;59.36
15195;BME280;7698;42.478;23.756;2022-12-07T12:50:24;93061.06;;;14.23;60.84
15195;BME280;7698;42.478;23.756;2022-12-07T12:52:59;93064.56;;;13.94;61.20
15195;BME280;7698;42.478;23.756;2022-12-07T12:58:43;93072.84;;;13.87;63.52
15195;BME280;7698;42.478;23.756;2022-12-07T13:01:44;93069.41;;;14.32;64.37
15195;BME280;7698;42.478;23.756;2022-12-07T13:04:34;93068.34;;;14.38;62.15
15195;BME280;7698;42.478;23.756;2022-12-07T13:07:02;93068.06;;;14.09;63.03
15195;BME280;7698;42.478;23.756;2022-12-07T13:09:33;93059.22;;;14.19;64.01
15195;BME280;7698;42.478;23.756;2022-12-07T13:12:04;93060.06;;;14.45;63.01
15195;BME280;7698;42.478;23.756;2022-12-07T13:14:54;93052.78;;;14.20;61.33
15195;BME280;7698;42.478;23.756;2022-12-07T13:20:49;93047.06;;;13.13;64.94
15195;BME280;7698;42.478;23.756;2022-12-07T13:26:26;93040.16;;;12.33;72.57
15195;BME280;7698;42.478;23.756;2022-12-07T13:29:07;93052.28;;;12.09;75.23
15195;BME280;7698;42.478;23.756;2022-12-07T13:31:39;93043.69;;;12.02;77.43
15195;BME280;7698;42.478;23.756;2022-12-07T13:34:29;93043.91;;;12.69;80.77